createdAt,value
2019-06-07T00:00:39.922Z,4.40
2019-06-07T00:03:10.714Z,4.47
2019-06-07T00:05:37.832Z,4.43
2019-06-07T00:08:10.836Z,3.70
2019-06-07T00:10:37.295Z,4.60
2019-06-07T00:13:06.896Z,3.93
2019-06-07T00:15:35.393Z,4.40
2019-06-07T00:18:03.843Z,4.43
2019-06-07T00:20:33.070Z,4.80
2019-06-07T00:23:01.411Z,4.37
2019-06-07T00:25:29.829Z,5.00
2019-06-07T00:27:58.209Z,4.23
2019-06-07T00:30:42.348Z,6.33
2019-06-07T00:32:57.730Z,4.67
2019-06-07T00:35:26.148Z,5.40
2019-06-07T00:37:54.486Z,5.57
2019-06-07T00:40:31.344Z,5.47
2019-06-07T00:42:53.090Z,5.10
2019-06-07T00:45:23.971Z,5.23
2019-06-07T00:47:51.577Z,5.20
2019-06-07T00:50:23.947Z,4.47
2019-06-07T00:55:27.058Z,3.60
2019-06-07T00:57:50.870Z,3.80
2019-06-07T01:00:23.565Z,3.43
2019-06-07T01:02:50.848Z,3.23
2019-06-07T01:05:22.590Z,3.50
2019-06-07T01:07:49.175Z,3.20
2019-06-07T01:10:46.038Z,3.90
2019-06-07T01:12:47.944Z,3.63
2019-06-07T01:15:18.190Z,3.40
2019-06-07T01:18:25.882Z,3.80
2019-06-07T01:20:21.181Z,3.70
2019-06-07T01:22:47.581Z,3.60
2019-06-07T01:25:18.331Z,5.03
2019-06-07T01:27:46.802Z,3.80
2019-06-07T01:30:16.190Z,4.90
2019-06-07T01:32:44.704Z,4.47
2019-06-07T01:35:13.114Z,4.70
2019-06-07T01:37:41.451Z,4.07
2019-06-07T01:40:10.015Z,3.70
2019-06-07T01:42:38.362Z,4.50
2019-06-07T01:45:08.585Z,4.27
2019-06-07T01:47:36.954Z,4.70
2019-06-07T01:50:08.209Z,4.93
2019-06-07T01:52:36.614Z,4.47
2019-06-07T01:55:06.545Z,3.90
2019-06-07T01:57:47.691Z,4.83
2019-06-07T02:00:06.578Z,4.10
2019-06-07T02:02:35.253Z,4.53
2019-06-07T02:05:04.763Z,4.30
2019-06-07T02:07:33.458Z,4.20
2019-06-07T02:10:01.798Z,4.47
2019-06-07T02:12:40.323Z,4.77
2019-06-07T02:15:00.326Z,4.80
2019-06-07T02:17:30.941Z,5.03
2019-06-07T02:19:58.777Z,5.10
2019-06-07T02:22:29.464Z,4.90
2019-06-07T02:25:34.379Z,5.10
2019-06-07T02:27:27.542Z,4.47
2019-06-07T02:29:56.320Z,4.60
2019-06-07T02:32:28.853Z,6.03
2019-06-07T02:34:54.697Z,4.03
2019-06-07T02:37:26.399Z,4.97
2019-06-07T02:39:53.270Z,4.70
2019-06-07T02:42:26.150Z,5.50
2019-06-07T02:44:51.599Z,4.53
2019-06-07T02:47:20.027Z,4.93
2019-06-07T02:49:48.323Z,5.50
2019-06-07T02:52:16.727Z,5.40
2019-06-07T02:54:45.040Z,5.00
2019-06-07T02:57:13.354Z,5.77
2019-06-07T03:00:05.203Z,5.03
2019-06-07T03:02:11.754Z,5.43
2019-06-07T03:04:43.940Z,5.30
2019-06-07T03:07:10.990Z,5.40
2019-06-07T03:09:39.966Z,5.07
2019-06-07T03:12:08.589Z,6.07
2019-06-07T03:14:36.887Z,6.17
2019-06-07T03:17:10.061Z,5.00
2019-06-07T03:19:40.134Z,5.80
2019-06-07T03:22:08.498Z,5.03
2019-06-07T03:24:41.126Z,5.73
2019-06-07T03:29:36.951Z,5.73
2019-06-07T03:32:05.296Z,6.23
2019-06-07T03:34:39.272Z,6.33
2019-06-07T03:37:03.645Z,6.60
2019-06-07T03:39:33.763Z,5.90
2019-06-07T03:42:06.485Z,6.30
2019-06-07T03:44:37.806Z,7.33
2019-06-07T03:47:05.531Z,7.50
2019-06-07T03:49:37.475Z,7.30
2019-06-07T03:52:04.005Z,7.37
2019-06-07T03:54:34.856Z,7.57
2019-06-07T03:57:02.316Z,9.23
2019-06-07T03:59:35.547Z,8.00
2019-06-07T04:02:00.652Z,9.20
2019-06-07T04:04:29.789Z,8.83
2019-06-07T04:06:58.290Z,8.40
2019-06-07T04:09:28.591Z,9.67
2019-06-07T04:11:56.818Z,9.83
2019-06-07T04:14:25.171Z,9.20
2019-06-07T04:16:53.493Z,8.97
2019-06-07T04:19:21.781Z,8.80
2019-06-07T04:21:51.024Z,9.10
2019-06-07T04:24:19.304Z,8.73
2019-06-07T04:26:48.261Z,8.90
2019-06-07T04:29:37.990Z,9.30
2019-06-07T04:31:46.700Z,8.77
2019-06-07T04:34:15.008Z,11.57
2019-06-07T04:36:56.683Z,8.57
2019-06-07T04:39:13.771Z,9.13
2019-06-07T04:41:42.114Z,12.30
2019-06-07T04:44:10.401Z,9.10
2019-06-07T04:46:42.163Z,11.93
2019-06-07T04:49:09.066Z,10.20
2019-06-07T04:51:42.083Z,10.53
2019-06-07T04:54:07.399Z,9.00
2019-06-07T04:56:38.517Z,11.40
2019-06-07T04:59:06.019Z,9.90
2019-06-07T05:01:36.760Z,11.20
2019-06-07T05:04:04.630Z,11.60
2019-06-07T05:06:36.319Z,10.93
2019-06-07T05:09:03.144Z,11.23
2019-06-07T05:11:32.062Z,11.67
2019-06-07T05:14:01.554Z,11.53
2019-06-07T05:16:30.500Z,10.63
2019-06-07T05:19:00.046Z,10.57
2019-06-07T05:21:49.369Z,11.43
2019-06-07T05:24:09.280Z,10.80
2019-06-07T05:26:30.406Z,10.67
2019-06-07T05:28:58.670Z,10.90
2019-06-07T05:31:27.055Z,11.87
2019-06-07T05:33:55.625Z,11.40
2019-06-07T05:36:24.103Z,11.00
2019-06-07T05:38:52.472Z,10.77
2019-06-07T05:41:20.867Z,11.03
2019-06-07T05:44:09.120Z,10.20
2019-06-07T05:46:19.322Z,11.70
2019-06-07T05:48:47.665Z,10.87
2019-06-07T05:51:16.015Z,11.73
2019-06-07T05:53:46.011Z,10.63
2019-06-07T05:56:15.390Z,12.00
2019-06-07T05:58:44.745Z,11.93
2019-06-07T06:01:42.136Z,12.20
2019-06-07T06:03:46.441Z,12.70
2019-06-07T06:06:13.348Z,11.90
2019-06-07T06:08:42.532Z,11.70
2019-06-07T06:11:12.477Z,13.27
2019-06-07T06:14:01.555Z,11.70
2019-06-07T06:16:10.815Z,11.43
2019-06-07T06:18:40.729Z,10.97
2019-06-07T06:21:18.924Z,10.77
2019-06-07T06:23:42.422Z,11.77
2019-06-07T06:26:09.750Z,12.17
2019-06-07T06:28:38.348Z,10.23
2019-06-07T06:31:06.775Z,10.63
2019-06-07T06:33:35.196Z,10.43
2019-06-07T06:36:03.531Z,11.40
2019-06-07T06:38:31.854Z,10.33
2019-06-07T06:41:15.487Z,11.53
2019-06-07T06:43:30.783Z,10.20
2019-06-07T06:45:59.105Z,10.83
2019-06-07T06:48:27.476Z,11.17
2019-06-07T06:50:55.861Z,11.13
2019-06-07T06:53:24.338Z,9.03
2019-06-07T06:55:52.758Z,10.60
2019-06-07T06:58:21.094Z,9.53
2019-06-07T07:01:04.871Z,9.80
2019-06-07T07:03:54.210Z,10.13
2019-06-07T07:05:54.415Z,8.27
2019-06-07T07:08:21.309Z,10.70
2019-06-07T07:10:53.205Z,9.93
2019-06-07T07:13:19.906Z,10.43
2019-06-07T07:15:55.083Z,10.10
2019-06-07T07:18:18.329Z,9.10
2019-06-07T07:20:48.344Z,9.50
2019-06-07T07:23:17.387Z,9.40
2019-06-07T07:25:51.070Z,9.20
2019-06-07T07:28:15.891Z,8.43
2019-06-07T07:30:47.287Z,8.73
2019-06-07T07:33:16.851Z,8.60
2019-06-07T07:36:08.104Z,8.37
2019-06-07T07:38:15.250Z,8.23
2019-06-07T07:43:13.554Z,7.17
2019-06-07T07:45:41.965Z,8.27
2019-06-07T07:48:17.561Z,7.00
2019-06-07T07:50:41.358Z,5.90
2019-06-07T07:53:09.808Z,5.20
2019-06-07T07:55:38.185Z,5.63
2019-06-07T07:58:06.475Z,5.63
2019-06-07T08:00:52.547Z,5.60
2019-06-07T08:03:04.866Z,5.40
2019-06-07T08:05:42.634Z,5.00
2019-06-07T08:08:04.961Z,7.40
2019-06-07T08:10:33.183Z,6.50
2019-06-07T08:13:22.721Z,6.03
2019-06-07T08:15:31.538Z,5.40
2019-06-07T08:18:03.934Z,5.70
2019-06-07T08:20:29.906Z,5.40
2019-06-07T08:23:00.900Z,4.83
2019-06-07T08:25:29.135Z,6.17
2019-06-07T08:27:58.989Z,7.27
2019-06-07T08:33:12.058Z,6.77
2019-06-07T08:36:03.634Z,6.03
2019-06-07T08:40:27.873Z,6.37
2019-06-07T08:43:18.332Z,5.70
2019-06-07T08:45:26.357Z,7.50
2019-06-07T08:47:58.014Z,6.20
2019-06-07T08:50:24.701Z,7.07
2019-06-07T08:52:59.434Z,5.73
2019-06-07T08:55:23.256Z,6.63
2019-06-07T08:57:54.521Z,6.87
2019-06-07T09:00:45.337Z,6.80
2019-06-07T09:02:54.966Z,6.37
2019-06-07T09:05:23.111Z,5.53
2019-06-07T09:08:12.995Z,7.23
2019-06-07T09:10:21.397Z,6.73
2019-06-07T09:12:49.721Z,8.20
2019-06-07T09:15:23.425Z,7.80
2019-06-07T09:18:30.519Z,6.10
2019-06-07T09:20:35.568Z,6.20
2019-06-07T09:22:48.197Z,6.20
2019-06-07T09:25:21.242Z,6.73
2019-06-07T09:27:46.623Z,5.70
2019-06-07T09:30:18.990Z,5.10
2019-06-07T09:32:46.583Z,4.57
2019-06-07T09:35:17.500Z,5.47
2019-06-07T09:40:27.094Z,5.57
2019-06-07T09:42:48.640Z,4.60
2019-06-07T09:45:16.944Z,4.77
2019-06-07T09:47:45.336Z,5.80
2019-06-07T09:50:13.612Z,4.03
2019-06-07T09:52:57.697Z,4.13
2019-06-07T09:55:22.930Z,3.57
2019-06-07T09:57:42.340Z,3.07
2019-06-07T10:00:39.282Z,4.07
2019-06-07T10:02:45.437Z,2.80
2019-06-07T10:05:14.593Z,3.37
2019-06-07T10:08:00.084Z,3.30
2019-06-07T10:12:45.271Z,4.17
2019-06-07T10:15:13.571Z,2.70
2019-06-07T10:17:41.857Z,2.30
2019-06-07T10:20:10.233Z,3.40
2019-06-07T10:22:38.573Z,3.07
2019-06-07T10:25:08.315Z,3.60
2019-06-07T10:27:36.984Z,3.00
2019-06-07T10:30:08.381Z,2.00
2019-06-07T10:32:36.728Z,2.40
2019-06-07T10:35:10.170Z,1.90
2019-06-07T10:37:38.463Z,2.20
2019-06-07T10:40:09.307Z,2.70
2019-06-07T10:42:37.697Z,1.80
2019-06-07T10:45:08.262Z,1.80
2019-06-07T10:47:36.791Z,1.80
2019-06-07T10:50:05.967Z,1.37
2019-06-07T10:52:34.525Z,2.47
2019-06-07T10:55:03.001Z,2.27
2019-06-07T10:57:31.287Z,2.13
2019-06-07T10:59:59.796Z,1.80
2019-06-07T11:02:28.143Z,1.80
2019-06-07T11:04:56.513Z,2.00
2019-06-07T11:07:24.850Z,1.73
2019-06-07T11:10:06.250Z,1.60
2019-06-07T11:12:23.336Z,2.30
2019-06-07T11:14:51.673Z,2.00
2019-06-07T11:17:19.958Z,2.43
2019-06-07T11:19:48.979Z,2.50
2019-06-07T11:22:18.557Z,2.20
2019-06-07T11:24:47.234Z,1.77
2019-06-07T11:27:16.415Z,1.90
2019-06-07T11:29:45.806Z,2.20
2019-06-07T11:32:14.632Z,2.33
2019-06-07T11:34:43.015Z,1.50
2019-06-07T11:37:12.037Z,1.67
2019-06-07T11:39:41.439Z,1.77
2019-06-07T11:42:09.963Z,1.43
2019-06-07T11:44:53.202Z,1.90
2019-06-07T11:47:08.477Z,2.07
2019-06-07T11:49:36.754Z,1.63
2019-06-07T11:52:05.058Z,2.77
2019-06-07T11:54:33.461Z,1.77
2019-06-07T11:57:01.761Z,1.93
2019-06-07T11:59:30.075Z,2.90
2019-06-07T12:01:58.555Z,2.50
2019-06-07T12:04:34.529Z,2.10
2019-06-07T12:06:57.010Z,1.30
2019-06-07T12:09:28.063Z,2.20
2019-06-07T12:11:55.273Z,1.73
2019-06-07T12:14:23.638Z,1.57
2019-06-07T12:16:51.952Z,2.07
2019-06-07T12:19:20.587Z,2.20
2019-06-07T12:21:49.010Z,1.70
2019-06-07T12:24:19.390Z,1.43
2019-06-07T12:26:47.365Z,1.60
2019-06-07T12:29:17.185Z,1.67
2019-06-07T12:31:45.597Z,2.33
2019-06-07T12:34:13.869Z,2.37
2019-06-07T12:36:43.837Z,1.47
2019-06-07T12:39:12.168Z,1.97
2019-06-07T12:41:40.439Z,1.60
2019-06-07T12:44:08.881Z,2.10
2019-06-07T12:46:37.135Z,1.60
2019-06-07T12:49:05.414Z,1.50
2019-06-07T12:51:33.818Z,1.87
2019-06-07T12:54:02.146Z,1.50
2019-06-07T12:56:30.426Z,2.60
2019-06-07T12:58:58.754Z,1.47
2019-06-07T13:01:27.166Z,1.80
2019-06-07T13:03:55.451Z,1.70
2019-06-07T13:06:23.781Z,2.10
2019-06-07T13:08:52.035Z,1.67
2019-06-07T13:11:26.158Z,2.20
2019-06-07T13:13:50.578Z,1.90
2019-06-07T13:16:19.982Z,1.63
2019-06-07T13:18:48.346Z,2.10
2019-06-07T13:21:18.219Z,2.23
2019-06-07T13:23:46.618Z,2.00
2019-06-07T13:26:16.749Z,1.97
2019-06-07T13:28:45.044Z,1.40
2019-06-07T13:31:13.363Z,2.10
2019-06-07T13:33:41.699Z,1.70
2019-06-07T13:36:10.120Z,2.00
2019-06-07T13:38:38.407Z,1.80
2019-06-07T13:41:06.723Z,1.90
2019-06-07T13:43:35.033Z,1.83
2019-06-07T13:46:03.336Z,2.20
2019-06-07T13:48:32.784Z,1.40
2019-06-07T13:51:01.172Z,1.93
2019-06-07T13:53:29.501Z,1.40
2019-06-07T13:55:57.929Z,1.80
2019-06-07T13:58:26.716Z,1.47
2019-06-07T14:00:54.993Z,1.50
2019-06-07T14:03:28.348Z,1.60
2019-06-07T14:05:53.330Z,1.70
2019-06-07T14:08:23.158Z,1.77
2019-06-07T14:10:51.578Z,1.80
2019-06-07T14:13:19.941Z,1.50
2019-06-07T14:15:48.379Z,1.40
2019-06-07T14:18:16.664Z,1.63
2019-06-07T14:20:44.953Z,1.50
2019-06-07T14:23:13.371Z,1.63
2019-06-07T14:25:41.784Z,2.03
2019-06-07T14:28:11.973Z,2.27
2019-06-07T14:30:40.561Z,2.00
2019-06-07T14:33:08.887Z,1.60
2019-06-07T14:35:37.307Z,2.00
2019-06-07T14:38:05.604Z,1.70
2019-06-07T14:40:34.159Z,1.47
2019-06-07T14:43:02.654Z,1.90
2019-06-07T14:45:32.796Z,1.70
2019-06-07T14:48:01.066Z,1.73
2019-06-07T14:50:30.250Z,1.27
2019-06-07T14:52:58.728Z,1.40
2019-06-07T14:55:27.113Z,1.47
2019-06-07T14:57:55.520Z,1.43
2019-06-07T15:00:41.159Z,1.43
2019-06-07T15:03:09.893Z,1.40
2019-06-07T15:05:40.480Z,1.43
2019-06-07T15:08:08.374Z,2.13
2019-06-07T15:10:36.767Z,1.80
2019-06-07T15:13:05.129Z,2.00
2019-06-07T15:15:34.591Z,1.70
2019-06-07T15:18:03.071Z,1.60
2019-06-07T15:20:32.188Z,1.57
2019-06-07T15:23:00.570Z,1.60
2019-06-07T15:25:29.208Z,1.90
2019-06-07T15:27:57.556Z,1.70
2019-06-07T15:30:25.908Z,1.70
2019-06-07T15:32:54.285Z,1.77
2019-06-07T15:35:22.776Z,1.50
2019-06-07T15:37:51.058Z,1.53
2019-06-07T15:40:19.479Z,1.43
2019-06-07T15:42:52.842Z,2.00
2019-06-07T15:45:18.508Z,2.00
2019-06-07T15:47:46.873Z,1.60
2019-06-07T15:50:15.270Z,2.10
2019-06-07T15:52:43.574Z,1.80
2019-06-07T15:55:12.002Z,2.07
2019-06-07T15:57:42.056Z,2.40
2019-06-07T16:00:19.519Z,2.20
2019-06-07T16:02:47.960Z,1.37
2019-06-07T16:05:16.441Z,1.63
2019-06-07T16:07:44.967Z,1.80
2019-06-07T16:10:14.805Z,1.60
2019-06-07T16:12:59.250Z,1.50
2019-06-07T16:15:13.895Z,1.40
2019-06-07T16:17:43.775Z,1.73
2019-06-07T16:20:13.367Z,1.67
2019-06-07T16:22:42.067Z,1.83
2019-06-07T16:25:10.655Z,2.20
2019-06-07T16:27:40.462Z,2.43
2019-06-07T16:30:10.071Z,2.20
2019-06-07T16:32:39.345Z,1.83
2019-06-07T16:35:08.323Z,2.20
2019-06-07T16:37:38.193Z,2.20
2019-06-07T16:40:07.793Z,1.70
2019-06-07T16:42:36.363Z,1.80
2019-06-07T16:45:11.350Z,1.80
2019-06-07T16:47:42.394Z,1.50
2019-06-07T16:50:10.459Z,1.57
2019-06-07T16:52:39.177Z,1.50
2019-06-07T16:55:08.306Z,1.80
2019-06-07T16:57:36.759Z,1.70
2019-06-07T17:00:13.303Z,1.50
2019-06-07T17:02:42.211Z,2.43
2019-06-07T17:05:10.806Z,1.57
2019-06-07T17:07:40.230Z,1.07
2019-06-07T17:10:09.143Z,1.43
2019-06-07T17:12:38.519Z,1.70
2019-06-07T17:15:07.693Z,2.10
2019-06-07T17:17:36.014Z,2.10
2019-06-07T17:20:06.022Z,2.23
2019-06-07T17:22:34.302Z,1.90
2019-06-07T17:25:02.658Z,2.10
2019-06-07T17:27:31.108Z,1.30
2019-06-07T17:29:59.540Z,1.83
2019-06-07T17:32:27.821Z,2.20
2019-06-07T17:34:56.101Z,1.80
2019-06-07T17:37:25.225Z,2.07
2019-06-07T17:39:53.513Z,2.00
2019-06-07T17:42:21.823Z,1.83
2019-06-07T17:44:51.355Z,1.87
2019-06-07T17:47:19.797Z,1.37
2019-06-07T17:49:48.220Z,2.83
2019-06-07T17:52:16.577Z,1.57
2019-06-07T17:54:45.924Z,1.67
2019-06-07T17:57:14.342Z,1.40
2019-06-07T17:59:42.696Z,1.50
2019-06-07T18:02:15.378Z,1.30
2019-06-07T18:04:43.050Z,1.23
2019-06-07T18:07:11.883Z,1.30
2019-06-07T18:09:40.165Z,1.30
2019-06-07T18:12:08.607Z,1.27
2019-06-07T18:14:36.988Z,2.00
2019-06-07T18:17:05.403Z,1.23
2019-06-07T18:19:33.786Z,1.20
2019-06-07T18:22:02.099Z,1.20
2019-06-07T18:24:30.394Z,1.43
2019-06-07T18:26:58.953Z,1.43
2019-06-07T18:29:27.219Z,1.77
2019-06-07T18:31:55.514Z,1.20
2019-06-07T18:34:23.933Z,1.60
2019-06-07T18:36:53.139Z,1.50
2019-06-07T18:39:21.704Z,1.70
2019-06-07T18:41:51.817Z,1.50
2019-06-07T18:44:21.877Z,1.80
2019-06-07T18:46:50.179Z,1.00
2019-06-07T18:49:18.485Z,1.20
2019-06-07T18:51:49.651Z,1.30
2019-06-07T18:54:18.087Z,1.40
2019-06-07T18:56:47.064Z,1.37
2019-06-07T18:59:15.391Z,1.23
2019-06-07T19:01:43.672Z,0.93
2019-06-07T19:04:12.866Z,1.20
2019-06-07T19:06:41.187Z,0.90
2019-06-07T19:09:09.607Z,1.13
2019-06-07T19:11:37.901Z,1.10
2019-06-07T19:14:06.183Z,0.97
2019-06-07T19:16:35.165Z,1.13
2019-06-07T19:19:03.756Z,1.20
2019-06-07T19:21:32.491Z,1.03
2019-06-07T19:24:00.871Z,0.83
2019-06-07T19:26:29.159Z,1.43
2019-06-07T19:28:57.468Z,1.77
2019-06-07T19:31:25.756Z,1.57
2019-06-07T19:33:55.104Z,1.70
2019-06-07T19:36:23.438Z,1.97
2019-06-07T19:38:51.840Z,1.47
2019-06-07T19:41:20.807Z,1.73
2019-06-07T19:43:49.222Z,1.43
2019-06-07T19:46:17.658Z,1.17
2019-06-07T19:48:46.052Z,1.30
2019-06-07T19:51:16.001Z,1.30
2019-06-07T19:53:44.290Z,0.80
2019-06-07T19:56:12.634Z,1.00
2019-06-07T19:58:40.923Z,0.80
2019-06-07T20:01:09.216Z,0.80
2019-06-07T20:03:38.109Z,0.77
2019-06-07T20:06:06.437Z,0.67
2019-06-07T20:08:34.993Z,0.83
2019-06-07T20:11:04.744Z,1.27
2019-06-07T20:13:33.371Z,0.80
2019-06-07T20:16:02.934Z,0.60
2019-06-07T20:18:31.460Z,1.30
2019-06-07T20:21:00.675Z,1.00
2019-06-07T20:23:29.225Z,0.60
2019-06-07T20:25:57.568Z,1.37
2019-06-07T20:28:25.948Z,0.97
2019-06-07T20:30:54.229Z,1.37
2019-06-07T20:33:22.529Z,0.73
2019-06-07T20:35:50.840Z,1.00
2019-06-07T20:38:19.126Z,0.63
2019-06-07T20:40:47.604Z,0.80
2019-06-07T20:43:15.909Z,0.60
2019-06-07T20:45:44.271Z,0.73
2019-06-07T20:48:12.572Z,0.77
2019-06-07T20:50:40.882Z,0.90
2019-06-07T20:53:09.634Z,1.00
2019-06-07T20:55:38.049Z,0.77
2019-06-07T20:58:07.275Z,0.87
2019-06-07T21:00:35.792Z,0.87
2019-06-07T21:03:05.335Z,1.07
2019-06-07T21:05:34.024Z,0.70
2019-06-07T21:08:04.177Z,1.13
2019-06-07T21:10:32.564Z,0.70
2019-06-07T21:13:01.971Z,0.60
2019-06-07T21:15:30.362Z,0.50
2019-06-07T21:18:00.168Z,1.40
2019-06-07T21:20:28.555Z,0.40
2019-06-07T21:22:56.850Z,0.60
2019-06-07T21:25:25.182Z,0.80
2019-06-07T21:27:55.543Z,0.60
2019-06-07T21:30:23.919Z,0.60
2019-06-07T21:32:52.431Z,0.50
2019-06-07T21:35:20.719Z,0.40
2019-06-07T21:37:49.026Z,0.80
2019-06-07T21:40:17.338Z,0.73
2019-06-07T21:42:45.614Z,0.57
2019-06-07T21:45:14.798Z,0.40
2019-06-07T21:47:43.091Z,0.53
2019-06-07T21:50:12.756Z,0.40
2019-06-07T21:52:41.309Z,0.40
2019-06-07T21:55:11.536Z,0.70
2019-06-07T21:57:39.849Z,0.47
2019-06-07T22:00:15.026Z,0.47
2019-06-07T22:02:43.307Z,0.40
2019-06-07T22:05:12.240Z,0.83
2019-06-07T22:07:40.583Z,0.40
2019-06-07T22:10:10.067Z,0.47
2019-06-07T22:12:38.439Z,0.40
2019-06-07T22:15:24.306Z,0.40
2019-06-07T22:17:38.309Z,0.40
2019-06-07T22:20:06.850Z,0.50
2019-06-07T22:22:35.193Z,0.60
2019-06-07T22:25:06.939Z,0.53
2019-06-07T22:27:35.450Z,0.50
2019-06-07T22:30:08.282Z,0.40
2019-06-07T22:32:37.090Z,0.77
2019-06-07T22:35:07.176Z,0.60
2019-06-07T22:37:35.753Z,0.50
2019-06-07T22:40:08.312Z,0.40
2019-06-07T22:42:37.216Z,0.60
2019-06-07T22:45:07.870Z,0.60
2019-06-07T22:47:36.635Z,0.50
2019-06-07T22:50:10.695Z,0.37
2019-06-07T22:52:39.385Z,0.47
2019-06-07T22:55:07.817Z,0.40
2019-06-07T22:57:53.913Z,1.03
2019-06-07T23:00:22.732Z,0.60
2019-06-07T23:02:51.025Z,0.40
2019-06-07T23:05:19.324Z,0.30
2019-06-07T23:07:47.637Z,0.60
2019-06-07T23:10:15.919Z,0.50
2019-06-07T23:12:44.383Z,0.60
2019-06-07T23:15:15.419Z,0.60
2019-06-07T23:17:43.844Z,0.77
2019-06-07T23:20:13.707Z,0.60
2019-06-07T23:22:42.138Z,0.50
2019-06-07T23:25:10.442Z,0.37
2019-06-07T23:27:38.876Z,0.50
2019-06-07T23:30:10.654Z,0.37
2019-06-07T23:32:39.100Z,0.67
2019-06-07T23:35:07.488Z,0.40
2019-06-07T23:37:35.788Z,0.50
2019-06-07T23:40:04.409Z,0.67
2019-06-07T23:42:32.957Z,0.80
2019-06-07T23:45:01.301Z,0.50
2019-06-07T23:47:29.583Z,0.50
2019-06-07T23:49:57.908Z,0.47
2019-06-07T23:52:26.196Z,0.40
2019-06-07T23:54:54.487Z,0.47
2019-06-07T23:57:22.799Z,0.50
2019-06-07T23:59:51.078Z,0.40
